Terminal Aerodrome Forecast
Issued by NWS

Home | Current Version | Previous Version | Text Only | Print | Product List | Glossary On
Versions: 1 2 3 4 5 6 7 8 9 10 11 12 13 14 15 16 17 18 19 20 21 22 23 24
000
FTUS43 KDLH 281700 RRA
TAFHIB
TAF
KHIB 281743Z 2818/2918 18012G20KT P6SM SKC
     FM282100 19014G25KT P6SM VCTS BKN100CB
     FM290200 18008KT P6SM -SHRA BKN035 WS020/21030KT
     FM291000 22005KT P6SM -SHRA OVC040 WS020/21030KT
      TEMPO 2910/2914 3SM -RA BR OVC015
     FM291400 26010KT P6SM -SHRA OVC015=

USA.gov is the U.S. government's official web portal to all federal, state and local government web resources and services.